sensor_id;sensor_type;location;lat;lon;timestamp;pressure;altitude;pressure_sealevel;temperature;humidity
57610;BME280;43435;46.186;9.024;2023-08-08T06:43:26;98845.88;;;19.41;35.60
57610;BME280;43435;46.186;9.024;2023-08-08T06:45:51;98839.63;;;19.40;35.69
57610;BME280;43435;46.186;9.024;2023-08-08T06:48:16;98845.03;;;19.40;35.13
57610;BME280;43435;46.186;9.024;2023-08-08T06:50:42;98845.16;;;19.50;35.28
57610;BME280;43435;46.186;9.024;2023-08-08T06:53:07;98847.69;;;19.57;34.95
57610;BME280;43435;46.186;9.024;2023-08-08T06:55:32;98852.16;;;19.68;35.01
57610;BME280;43435;46.186;9.024;2023-08-08T06:57:57;98846.03;;;19.78;34.87
57610;BME280;43435;46.186;9.024;2023-08-08T07:00:23;98845.84;;;19.85;34.77
57610;BME280;43435;46.186;9.024;2023-08-08T07:02:48;98850.78;;;19.93;34.38
57610;BME280;43435;46.186;9.024;2023-08-08T07:05:13;98847.91;;;20.05;34.52
57610;BME280;43435;46.186;9.024;2023-08-08T07:07:38;98850.97;;;20.13;33.97
57610;BME280;43435;46.186;9.024;2023-08-08T08:34:22;98803.09;;;22.12;34.54
57610;BME280;43435;46.186;9.024;2023-08-08T08:36:47;98801.75;;;22.30;33.13
57610;BME280;43435;46.186;9.024;2023-08-08T08:39:12;98801.47;;;22.42;34.58
57610;BME280;43435;46.186;9.024;2023-08-08T08:41:38;98797.91;;;22.57;33.33
57610;BME280;43435;46.186;9.024;2023-08-08T08:44:03;98795.47;;;22.65;34.11
57610;BME280;43435;46.186;9.024;2023-08-08T08:46:29;98799.50;;;22.78;33.44
57610;BME280;43435;46.186;9.024;2023-08-08T08:48:55;98792.16;;;22.94;31.46
57610;BME280;43435;46.186;9.024;2023-08-08T08:51:23;98792.63;;;23.01;28.51
57610;BME280;43435;46.186;9.024;2023-08-08T08:53:48;98787.19;;;23.06;28.99
57610;BME280;43435;46.186;9.024;2023-08-08T08:56:14;98783.38;;;23.12;28.57
57610;BME280;43435;46.186;9.024;2023-08-08T08:58:39;98784.41;;;23.22;30.24
57610;BME280;43435;46.186;9.024;2023-08-08T09:01:04;98780.84;;;23.31;29.77
57610;BME280;43435;46.186;9.024;2023-08-08T09:03:30;98777.78;;;23.38;31.88
57610;BME280;43435;46.186;9.024;2023-08-08T09:05:55;98779.94;;;23.46;31.42
57610;BME280;43435;46.186;9.024;2023-08-08T09:08:21;98781.75;;;23.56;31.26
57610;BME280;43435;46.186;9.024;2023-08-08T09:10:47;98775.44;;;23.66;31.06
57610;BME280;43435;46.186;9.024;2023-08-08T09:13:12;98772.72;;;23.71;30.98
57610;BME280;43435;46.186;9.024;2023-08-08T09:36:31;98768.63;;;24.37;28.58
57610;BME280;43435;46.186;9.024;2023-08-08T09:38:57;98773.25;;;24.36;28.68
57610;BME280;43435;46.186;9.024;2023-08-08T09:41:22;98772.28;;;24.27;30.57
57610;BME280;43435;46.186;9.024;2023-08-08T09:43:48;98760.75;;;24.35;30.22
57610;BME280;43435;46.186;9.024;2023-08-08T09:46:14;98754.53;;;24.58;28.28
57610;BME280;43435;46.186;9.024;2023-08-08T09:48:40;98759.63;;;24.65;28.24
57610;BME280;43435;46.186;9.024;2023-08-08T09:51:06;98754.41;;;24.69;29.50
57610;BME280;43435;46.186;9.024;2023-08-08T09:53:32;98748.28;;;24.82;27.57
57610;BME280;43435;46.186;9.024;2023-08-08T09:55:58;98745.94;;;24.94;27.29
57610;BME280;43435;46.186;9.024;2023-08-08T09:58:24;98744.78;;;25.00;26.75
57610;BME280;43435;46.186;9.024;2023-08-08T10:00:50;98738.13;;;25.06;28.13
57610;BME280;43435;46.186;9.024;2023-08-08T10:03:18;98732.22;;;25.23;27.89
57610;BME280;43435;46.186;9.024;2023-08-08T10:05:44;98736.28;;;25.26;28.79
57610;BME280;43435;46.186;9.024;2023-08-08T10:08:09;98731.47;;;25.37;28.75
57610;BME280;43435;46.186;9.024;2023-08-08T10:10:35;98731.53;;;25.50;27.50
57610;BME280;43435;46.186;9.024;2023-08-08T10:13:02;98739.59;;;25.61;28.88
57610;BME280;43435;46.186;9.024;2023-08-08T10:15:27;98732.50;;;25.60;29.61
57610;BME280;43435;46.186;9.024;2023-08-08T10:17:56;98727.56;;;25.62;31.71
57610;BME280;43435;46.186;9.024;2023-08-08T15:43:00;98525.16;;;31.20;21.97
57610;BME280;43435;46.186;9.024;2023-08-08T15:45:25;98527.03;;;31.07;23.93
57610;BME280;43435;46.186;9.024;2023-08-08T15:47:50;98538.06;;;30.65;24.75
57610;BME280;43435;46.186;9.024;2023-08-08T15:50:17;98541.00;;;30.39;25.13
57610;BME280;43435;46.186;9.024;2023-08-08T15:52:42;98542.56;;;30.19;25.67
57610;BME280;43435;46.186;9.024;2023-08-08T15:55:08;98538.19;;;30.18;26.02
57610;BME280;43435;46.186;9.024;2023-08-08T15:57:34;98531.38;;;30.16;25.57
57610;BME280;43435;46.186;9.024;2023-08-08T15:59:59;98536.22;;;30.27;24.48
57610;BME280;43435;46.186;9.024;2023-08-08T16:02:24;98543.00;;;30.51;23.78
57610;BME280;43435;46.186;9.024;2023-08-08T16:04:50;98540.13;;;30.68;25.03
57610;BME280;43435;46.186;9.024;2023-08-08T16:07:15;98535.88;;;30.79;24.08
57610;BME280;43435;46.186;9.024;2023-08-08T16:09:43;98533.06;;;30.38;25.64
57610;BME280;43435;46.186;9.024;2023-08-08T16:12:09;98527.09;;;30.06;25.89
57610;BME280;43435;46.186;9.024;2023-08-08T16:14:35;98529.06;;;29.97;25.88
57610;BME280;43435;46.186;9.024;2023-08-08T16:17:00;98528.97;;;29.84;26.55
57610;BME280;43435;46.186;9.024;2023-08-08T16:19:25;98528.47;;;29.82;26.82
57610;BME280;43435;46.186;9.024;2023-08-08T16:21:50;98525.91;;;29.77;27.23
57610;BME280;43435;46.186;9.024;2023-08-08T16:24:16;98534.81;;;29.83;26.72
57610;BME280;43435;46.186;9.024;2023-08-08T16:26:41;98528.09;;;29.93;26.39
57610;BME280;43435;46.186;9.024;2023-08-08T16:39:27;98509.59;;;30.61;26.21
